Startpagina
METAR-TAF:

METAR-TAF

Vliegvelden :

Lahr, Duitsland

breedte: 48-22-09N, lengte: 007-49-40E, hoogte: 156 m

Actueel weer

Dit bericht is 3 uur en het 13 minuten geleden gemaakt, om 17:50 UTC
Wind 5 kt uit het oosten, variërend tussen het noordnoordoosten en het zuidoosten
Temperatuur 8°C
Vochtigheid 71%
Druk 1013 hPa
Zicht 10 km of meer
Weinig wolken op 3300 ft
Verspreide wolken op 6600 ft

METAR: EDTL 051750Z 08005KT 030V130 9999 FEW033 SCT066 08/03 Q1013

Tijdstip: 23:03 (21:03 UTC)

Verwachting

Dit bericht is 4 uur en het 3 minuten geleden gemaakt, om 17:00 UTC
Verwachting geldig van 05 om 18 UTC tot 05 om 24 UTC
Wind 8 kt uit het zuidwesten
Zicht 10 km of meer
Verspreide wolken op 3500 ft
Kans 40% :
Tijdelijke
van 05 om 18 UTC tot 05 om 24 UTC
Gebroken wolken op 2000 ft, Cumulonimbus.
regenbuien

TAF: EDTL 051700Z 0518/0524 23008KT 9999 SCT035 PROB40 TEMPO 0518/0524 SHRA BKN020CB

Waarnemingen en weersverwachtingen van meer dan 4000 vliegvelden (METAR en TAF).

De beschikbare stations zijn de gele en rode punten op de kaart.

Ga met uw muis naar het station om de naam te zien.

Klik dan om waarnemingen en weersverwachtingen te zien.

kaart wijzigen: klik op de groene knoppen met een zwart kruis om in te zoomen, op de groene knop met een streepje om uit te zoomen of op de groene pijlen voor aangrenzende kaarten.


METAR-TAF: